Time;durP1;ratioP1;P1;durP2;ratioP2;P2;SDS_P1;SDS_P2;PMS_P1;PMS_P2;Temp;Humidity;BMP_temperature;BMP_pressure;BME280_temperature;BME280_humidity;BME280_pressure;Samples;Min_cycle;Max_cycle;Signal;HPM_P1;HPM_P2
2022/06/08 00:00:56;;;;;;;22.40;10.95;;;;;;;;;;5054601;28;20068;-75
2022/06/08 00:03:27;;;;;;;19.58;10.50;;;;;;;;;;5054870;28;20029;-75
2022/06/08 00:05:54;;;;;;;24.10;10.80;;;;;;;;;;5040925;28;20108;-75
2022/06/08 00:08:20;;;;;;;24.30;11.15;;;;;;;;;;5034728;28;20029;-75
2022/06/08 00:10:46;;;;;;;19.77;10.32;;;;;;;;;;5066507;28;20026;-75
2022/06/08 00:13:12;;;;;;;20.98;10.77;;;;;;;;;;5034693;28;20025;-75
2022/06/08 00:15:39;;;;;;;22.52;11.60;;;;;;;;;;5034829;28;20021;-75
2022/06/08 00:18:06;;;;;;;19.90;10.50;;;;;;;;;;5034376;28;20086;-75
2022/06/08 00:20:32;;;;;;;22.02;11.23;;;;;;;;;;5034591;28;20509;-75
2022/06/08 00:22:58;;;;;;;18.15;10.05;;;;;;;;;;5038757;28;20024;-74
2022/06/08 00:25:25;;;;;;;22.90;10.85;;;;;;;;;;5054437;28;20094;-74
2022/06/08 00:27:51;;;;;;;23.27;11.38;;;;;;;;;;5054316;28;20065;-74
2022/06/08 00:30:17;;;;;;;25.02;11.93;;;;;;;;;;5050508;28;20029;-74
2022/06/08 00:32:43;;;;;;;23.70;12.00;;;;;;;;;;5034306;28;20091;-74
2022/06/08 00:35:10;;;;;;;27.33;13.27;;;;;;;;;;5034186;28;20083;-75
2022/06/08 00:37:36;;;;;;;24.67;12.27;;;;;;;;;;5032644;28;20025;-74
2022/06/08 00:40:03;;;;;;;29.08;11.85;;;;;;;;;;5034189;28;20025;-74
2022/06/08 00:42:29;;;;;;;26.23;12.35;;;;;;;;;;5032700;28;20124;-74
2022/06/08 00:44:57;;;;;;;25.38;13.20;;;;;;;;;;5033924;28;20513;-74
2022/06/08 00:47:26;;;;;;;24.38;12.65;;;;;;;;;;5034035;28;20435;-74
2022/06/08 00:49:58;;;;;;;25.73;12.25;;;;;;;;;;5033661;28;20037;-74
2022/06/08 00:52:25;;;;;;;25.20;12.87;;;;;;;;;;5033998;28;20067;-74
2022/06/08 00:54:53;;;;;;;27.25;12.57;;;;;;;;;;5034162;28;20128;-74
2022/06/08 00:57:27;;;;;;;27.77;12.77;;;;;;;;;;5033666;28;20017;-74
2022/06/08 01:00:00;;;;;;;28.90;12.38;;;;;;;;;;5033797;28;20136;-74
2022/06/08 01:02:26;;;;;;;25.42;12.02;;;;;;;;;;5033462;28;20029;-74
2022/06/08 01:05:12;;;;;;;26.38;12.82;;;;;;;;;;5034029;28;20412;-74
2022/06/08 01:07:38;;;;;;;25.55;12.85;;;;;;;;;;5033559;28;20151;-75
2022/06/08 01:10:04;;;;;;;28.45;13.20;;;;;;;;;;5033451;28;20029;-75
2022/06/08 01:12:30;;;;;;;27.80;12.88;;;;;;;;;;5033592;28;20030;-75
2022/06/08 01:14:56;;;;;;;28.63;13.80;;;;;;;;;;5033356;28;20029;-75
2022/06/08 01:17:22;;;;;;;29.17;13.45;;;;;;;;;;5033459;28;20025;-75
2022/06/08 01:19:49;;;;;;;27.60;12.65;;;;;;;;;;5033315;28;20484;-74
2022/06/08 01:22:18;;;;;;;25.60;12.05;;;;;;;;;;5033359;28;20053;-74
2022/06/08 01:24:46;;;;;;;23.40;12.40;;;;;;;;;;5053019;28;20086;-74
2022/06/08 01:27:36;;;;;;;25.10;12.63;;;;;;;;;;5053168;28;20538;-74
2022/06/08 01:30:11;;;;;;;24.70;12.75;;;;;;;;;;5051312;28;20031;-74
2022/06/08 01:32:40;;;;;;;24.65;12.55;;;;;;;;;;5033133;28;20032;-74
2022/06/08 01:35:15;;;;;;;22.33;11.38;;;;;;;;;;5032861;28;20678;-74
2022/06/08 01:37:56;;;;;;;27.05;11.85;;;;;;;;;;5033054;28;20299;-74
2022/06/08 01:40:30;;;;;;;25.90;12.35;;;;;;;;;;5032915;28;20729;-75
2022/06/08 01:43:07;;;;;;;27.67;12.27;;;;;;;;;;5032826;28;20025;-75
2022/06/08 01:45:40;;;;;;;25.83;13.32;;;;;;;;;;5032959;28;20042;-75
2022/06/08 01:48:12;;;;;;;28.30;13.18;;;;;;;;;;5032998;28;20040;-75
2022/06/08 01:50:56;;;;;;;25.85;12.60;;;;;;;;;;5032850;28;20025;-75
2022/06/08 01:53:22;;;;;;;22.98;12.13;;;;;;;;;;5032834;28;20022;-75
2022/06/08 01:55:53;;;;;;;26.17;13.15;;;;;;;;;;5032554;28;20013;-75
2022/06/08 01:58:29;;;;;;;27.10;12.77;;;;;;;;;;5032610;28;20040;-75
2022/06/08 02:00:59;;;;;;;22.42;12.05;;;;;;;;;;5032394;28;20491;-75
2022/06/08 02:03:57;;;;;;;25.35;12.85;;;;;;;;;;5032645;28;20076;-75
2022/06/08 02:06:46;;;;;;;22.70;11.50;;;;;;;;;;4971488;28;20421;-75
2022/06/08 02:09:36;;;;;;;26.65;11.75;;;;;;;;;;4932573;29;20035;-75
2022/06/08 02:12:10;;;;;;;22.50;11.93;;;;;;;;;;4895073;29;20120;-75
2022/06/08 02:14:42;;;;;;;25.13;12.35;;;;;;;;;;4894940;29;20151;-74
2022/06/08 02:17:11;;;;;;;26.60;11.77;;;;;;;;;;4894813;29;20045;-74
2022/06/08 02:19:40;;;;;;;25.88;11.40;;;;;;;;;;4894918;29;20132;-74
2022/06/08 02:22:13;;;;;;;23.63;11.77;;;;;;;;;;4894966;29;20033;-74
2022/06/08 02:24:45;;;;;;;29.23;12.38;;;;;;;;;;4894833;29;20036;-74
2022/06/08 02:27:14;;;;;;;25.00;11.98;;;;;;;;;;4895002;29;20123;-74
2022/06/08 02:29:43;;;;;;;23.63;13.10;;;;;;;;;;4894817;29;20092;-74
2022/06/08 02:35:01;;;;;;;27.85;14.90;;;;;;;;;;4894507;29;20096;-74
2022/06/08 02:37:31;;;;;;;29.42;14.25;;;;;;;;;;4894897;29;20032;-74
2022/06/08 02:40:00;;;;;;;29.23;14.27;;;;;;;;;;4894638;29;20040;-74
2022/06/08 02:42:34;;;;;;;32.15;14.70;;;;;;;;;;4934041;29;20379;-74
2022/06/08 02:45:04;;;;;;;31.55;14.85;;;;;;;;;;4951793;28;20691;-75
2022/06/08 02:47:32;;;;;;;28.98;14.82;;;;;;;;;;5009173;28;20029;-74
2022/06/08 02:50:02;;;;;;;35.90;15.95;;;;;;;;;;5029377;28;20109;-74
2022/06/08 02:52:29;;;;;;;33.28;15.88;;;;;;;;;;5031888;28;20033;-74
2022/06/08 02:54:56;;;;;;;35.20;16.55;;;;;;;;;;5031502;28;20032;-75
2022/06/08 02:57:37;;;;;;;31.48;14.98;;;;;;;;;;5031570;28;20021;-74
2022/06/08 03:00:03;;;;;;;35.35;16.65;;;;;;;;;;5030196;28;20383;-74
2022/06/08 03:02:35;;;;;;;31.95;16.17;;;;;;;;;;5031496;28;20053;-74
2022/06/08 03:05:01;;;;;;;;;;;;;;;;;;5031974;28;20045;-74
2022/06/08 03:07:37;;;;;;;34.35;16.25;;;;;;;;;;5031550;28;19916;-74
2022/06/08 03:10:06;;;;;;;36.08;17.38;;;;;;;;;;5031446;28;20033;-74
2022/06/08 03:12:44;;;;;;;39.05;16.63;;;;;;;;;;5031490;28;20064;-74
2022/06/08 03:15:11;;;;;;;45.83;18.58;;;;;;;;;;5031336;28;20017;-74
2022/06/08 03:17:37;;;;;;;36.45;16.05;;;;;;;;;;5031323;28;20104;-74
2022/06/08 03:20:07;;;;;;;38.92;18.35;;;;;;;;;;5031354;28;20025;-75
2022/06/08 03:22:33;;;;;;;39.60;18.33;;;;;;;;;;5033384;28;20133;-74
2022/06/08 03:24:59;;;;;;;43.00;18.88;;;;;;;;;;5051159;28;20035;-74
2022/06/08 03:27:26;;;;;;;40.65;19.63;;;;;;;;;;5051081;28;20112;-74
2022/06/08 03:29:52;;;;;;;32.53;16.65;;;;;;;;;;5051024;28;20052;-74
2022/06/08 03:32:18;;;;;;;37.22;17.95;;;;;;;;;;5031111;28;20029;-74
2022/06/08 03:34:44;;;;;;;40.20;19.40;;;;;;;;;;5031091;28;20032;-74
2022/06/08 03:37:10;;;;;;;44.47;18.80;;;;;;;;;;5031246;28;20111;-74
2022/06/08 03:39:36;;;;;;;34.75;18.10;;;;;;;;;;5031092;28;20033;-74
2022/06/08 03:42:02;;;;;;;40.00;18.38;;;;;;;;;;5031200;28;20036;-74
2022/06/08 03:44:28;;;;;;;45.42;19.58;;;;;;;;;;5030959;28;20057;-74
2022/06/08 03:46:56;;;;;;;38.67;18.27;;;;;;;;;;5031037;28;20087;-74
2022/06/08 03:49:23;;;;;;;38.83;17.15;;;;;;;;;;5031031;28;20029;-74
2022/06/08 03:51:50;;;;;;;41.42;18.02;;;;;;;;;;5031274;28;20441;-74
2022/06/08 03:54:18;;;;;;;39.30;18.10;;;;;;;;;;5031027;28;20033;-75
2022/06/08 03:56:47;;;;;;;40.65;17.95;;;;;;;;;;5030965;28;20044;-74
2022/06/08 03:59:13;;;;;;;39.15;17.90;;;;;;;;;;5034843;28;20017;-75
2022/06/08 04:01:39;;;;;;;41.38;19.25;;;;;;;;;;5034761;28;20029;-74
2022/06/08 04:04:05;;;;;;;40.53;19.23;;;;;;;;;;5034981;28;20539;-74
2022/06/08 04:06:31;;;;;;;39.65;18.13;;;;;;;;;;5053254;28;20039;-75
2022/06/08 04:08:57;;;;;;;36.50;18.92;;;;;;;;;;5054492;28;20031;-74
2022/06/08 04:11:24;;;;;;;36.50;18.80;;;;;;;;;;5054442;28;20108;-74
2022/06/08 04:13:50;;;;;;;45.90;18.85;;;;;;;;;;5054424;28;20060;-74
2022/06/08 04:16:16;;;;;;;39.80;19.45;;;;;;;;;;5054366;28;20083;-74
2022/06/08 04:18:42;;;;;;;39.50;18.60;;;;;;;;;;5054402;28;20021;-74
2022/06/08 04:21:09;;;;;;;40.97;19.50;;;;;;;;;;5054401;28;20447;-74
2022/06/08 04:23:36;;;;;;;36.08;17.77;;;;;;;;;;5054320;28;20017;-74
2022/06/08 04:26:02;;;;;;;37.13;18.02;;;;;;;;;;5054105;28;20447;-74
2022/06/08 04:28:28;;;;;;;42.08;19.13;;;;;;;;;;5054078;28;20032;-74
2022/06/08 04:30:54;;;;;;;35.08;17.23;;;;;;;;;;5053994;28;20017;-74
2022/06/08 04:33:21;;;;;;;38.00;18.40;;;;;;;;;;5054153;28;20033;-74
2022/06/08 04:35:47;;;;;;;37.50;18.55;;;;;;;;;;5054107;28;20378;-74
2022/06/08 04:38:13;;;;;;;32.47;17.10;;;;;;;;;;5054078;28;20048;-74
2022/06/08 04:40:40;;;;;;;37.53;18.38;;;;;;;;;;5053974;28;20018;-74
2022/06/08 04:43:06;;;;;;;36.58;17.30;;;;;;;;;;5053476;28;20460;-74
2022/06/08 04:45:35;;;;;;;33.15;17.63;;;;;;;;;;5053778;28;20113;-74
2022/06/08 04:48:01;;;;;;;34.53;16.60;;;;;;;;;;5053860;28;20421;-74
2022/06/08 04:50:28;;;;;;;31.23;16.63;;;;;;;;;;5053756;28;20032;-74
2022/06/08 04:52:54;;;;;;;31.48;15.82;;;;;;;;;;5053763;28;20471;-74
2022/06/08 04:55:22;;;;;;;25.98;14.77;;;;;;;;;;5053473;28;20371;-74
2022/06/08 04:57:48;;;;;;;26.67;14.75;;;;;;;;;;5053395;28;20036;-74
2022/06/08 05:00:17;;;;;;;28.75;14.10;;;;;;;;;;5053515;28;20035;-74
2022/06/08 05:02:49;;;;;;;26.60;13.50;;;;;;;;;;5053785;28;20032;-74
2022/06/08 05:05:19;;;;;;;29.30;14.48;;;;;;;;;;5053270;28;20056;-75
2022/06/08 05:07:45;;;;;;;25.05;13.73;;;;;;;;;;5053541;28;20040;-75
2022/06/08 05:10:12;;;;;;;26.23;13.38;;;;;;;;;;5052677;28;20021;-75
2022/06/08 05:12:38;;;;;;;27.05;13.85;;;;;;;;;;5053330;28;20037;-74
2022/06/08 05:15:09;;;;;;;24.98;13.15;;;;;;;;;;5053273;28;20602;-75
2022/06/08 05:17:35;;;;;;;24.20;12.80;;;;;;;;;;5051546;28;20321;-74
2022/06/08 05:20:01;;;;;;;23.83;13.23;;;;;;;;;;5053292;28;20343;-75
2022/06/08 05:22:27;;;;;;;23.70;13.00;;;;;;;;;;5053155;28;20106;-75
2022/06/08 05:24:54;;;;;;;28.70;13.52;;;;;;;;;;5053171;28;20032;-75
2022/06/08 05:27:20;;;;;;;27.23;12.60;;;;;;;;;;5052881;28;20108;-74
2022/06/08 05:29:46;;;;;;;23.33;13.07;;;;;;;;;;5052908;28;20422;-74
2022/06/08 05:32:12;;;;;;;25.70;13.15;;;;;;;;;;5033342;28;20468;-75
2022/06/08 05:34:38;;;;;;;23.63;12.73;;;;;;;;;;5032904;28;20533;-75
2022/06/08 05:37:04;;;;;;;21.77;11.80;;;;;;;;;;5033017;28;20033;-75
2022/06/08 05:39:30;;;;;;;19.23;12.15;;;;;;;;;;5032842;28;20026;-75
2022/06/08 05:41:56;;;;;;;22.15;12.05;;;;;;;;;;5032918;28;20026;-75
2022/06/08 05:44:22;;;;;;;20.25;11.73;;;;;;;;;;5032806;28;20133;-75
2022/06/08 05:46:49;;;;;;;21.98;12.85;;;;;;;;;;5032882;28;20026;-75
2022/06/08 05:49:15;;;;;;;21.45;12.20;;;;;;;;;;5032709;28;20030;-75
2022/06/08 05:51:42;;;;;;;21.45;12.90;;;;;;;;;;5032903;28;20017;-75
2022/06/08 05:54:08;;;;;;;21.42;12.77;;;;;;;;;;5032392;28;20081;-75
2022/06/08 05:56:34;;;;;;;21.65;12.57;;;;;;;;;;5032423;28;20091;-75
2022/06/08 05:59:00;;;;;;;19.15;12.05;;;;;;;;;;5032531;28;20025;-75
2022/06/08 06:01:27;;;;;;;18.67;11.18;;;;;;;;;;5032647;28;20026;-75
2022/06/08 06:03:53;;;;;;;20.00;11.32;;;;;;;;;;5032634;28;20211;-75
2022/06/08 06:06:19;;;;;;;21.38;11.38;;;;;;;;;;5049237;28;20202;-75
2022/06/08 06:08:45;;;;;;;22.85;11.68;;;;;;;;;;5052276;28;20048;-75
2022/06/08 06:11:15;;;;;;;21.10;11.18;;;;;;;;;;5052382;28;20047;-75
2022/06/08 06:13:41;;;;;;;16.70;10.25;;;;;;;;;;5051849;28;20035;-75
2022/06/08 06:16:08;;;;;;;18.52;10.18;;;;;;;;;;5052107;28;20033;-75
2022/06/08 06:18:34;;;;;;;16.55;9.98;;;;;;;;;;5052042;28;20028;-75
2022/06/08 06:21:00;;;;;;;16.58;10.18;;;;;;;;;;5051065;28;20067;-75
2022/06/08 06:23:27;;;;;;;18.05;10.20;;;;;;;;;;5051884;28;20075;-75
2022/06/08 06:25:53;;;;;;;19.38;10.60;;;;;;;;;;5051835;28;20032;-75
2022/06/08 06:28:19;;;;;;;17.23;9.23;;;;;;;;;;5050007;28;20099;-75
2022/06/08 06:30:45;;;;;;;14.88;8.80;;;;;;;;;;5057646;28;20021;-75
2022/06/08 06:33:12;;;;;;;14.93;8.70;;;;;;;;;;5051755;28;20029;-75
2022/06/08 06:35:40;;;;;;;15.18;7.95;;;;;;;;;;5051603;28;20047;-75
2022/06/08 06:38:06;;;;;;;16.15;7.95;;;;;;;;;;5050223;28;20025;-75
2022/06/08 06:40:33;;;;;;;11.70;7.43;;;;;;;;;;5051836;28;20360;-75
2022/06/08 06:42:59;;;;;;;11.90;6.72;;;;;;;;;;5051542;28;20028;-75
2022/06/08 06:45:26;;;;;;;13.48;7.15;;;;;;;;;;5051635;28;20040;-75
2022/06/08 06:47:52;;;;;;;13.18;7.40;;;;;;;;;;5051408;28;20025;-74
2022/06/08 06:50:18;;;;;;;10.35;6.85;;;;;;;;;;5051439;28;20025;-74
2022/06/08 06:52:45;;;;;;;9.25;6.15;;;;;;;;;;5051548;28;20037;-74
2022/06/08 06:55:20;;;;;;;9.93;6.55;;;;;;;;;;5051392;28;20070;-74
2022/06/08 06:57:46;;;;;;;11.15;5.80;;;;;;;;;;5051239;28;20017;-74
2022/06/08 07:00:12;;;;;;;14.98;6.70;;;;;;;;;;5051476;28;20089;-76
2022/06/08 07:02:41;;;;;;;10.43;6.10;;;;;;;;;;5051000;28;20098;-74
2022/06/08 07:05:10;;;;;;;11.85;5.50;;;;;;;;;;5050536;28;20028;-74
2022/06/08 07:07:36;;;;;;;11.30;5.18;;;;;;;;;;5051400;28;20443;-75
2022/06/08 07:10:02;;;;;;;6.97;4.80;;;;;;;;;;5051027;28;20430;-75
2022/06/08 07:12:28;;;;;;;11.02;5.35;;;;;;;;;;5051190;28;20043;-75
2022/06/08 07:14:54;;;;;;;8.65;5.20;;;;;;;;;;5051133;28;20426;-75
2022/06/08 07:17:20;;;;;;;7.82;5.28;;;;;;;;;;5051177;28;20129;-76
2022/06/08 07:19:46;;;;;;;8.43;5.20;;;;;;;;;;5051170;28;20096;-76
2022/06/08 07:22:12;;;;;;;11.20;5.60;;;;;;;;;;5049899;28;20029;-75
2022/06/08 07:24:38;;;;;;;9.55;5.40;;;;;;;;;;5049904;28;20446;-75
2022/06/08 07:27:05;;;;;;;10.05;5.78;;;;;;;;;;5051555;28;20056;-75
2022/06/08 07:29:31;;;;;;;6.93;4.90;;;;;;;;;;5050800;28;20025;-75
2022/06/08 07:31:57;;;;;;;8.90;5.40;;;;;;;;;;5049275;28;20029;-75
2022/06/08 07:34:23;;;;;;;6.35;5.00;;;;;;;;;;5054097;28;20067;-75
2022/06/08 07:36:49;;;;;;;8.25;4.60;;;;;;;;;;5053127;28;20025;-75
2022/06/08 07:39:16;;;;;;;10.50;5.35;;;;;;;;;;5053754;28;20031;-75
2022/06/08 07:41:46;;;;;;;7.03;4.53;;;;;;;;;;5054604;28;20029;-75
2022/06/08 07:44:12;;;;;;;7.72;4.65;;;;;;;;;;5044647;28;20189;-75
2022/06/08 07:46:39;;;;;;;8.90;5.35;;;;;;;;;;5054837;28;20025;-75
2022/06/08 07:51:53;;;;;;;7.03;4.65;;;;;;;;;;5053967;28;20075;-76
2022/06/08 07:54:22;;;;;;;6.95;4.85;;;;;;;;;;5055335;28;20061;-75
2022/06/08 07:56:48;;;;;;;11.07;5.30;;;;;;;;;;5055177;28;20172;-75
2022/06/08 07:59:14;;;;;;;8.32;5.47;;;;;;;;;;5055102;28;20018;-76
2022/06/08 08:01:40;;;;;;;10.57;5.63;;;;;;;;;;5055349;28;20017;-75
2022/06/08 08:04:06;;;;;;;9.52;5.47;;;;;;;;;;5055381;28;20037;-75
2022/06/08 08:06:32;;;;;;;8.65;5.60;;;;;;;;;;5055141;28;20029;-75
2022/06/08 08:09:00;;;;;;;8.55;5.60;;;;;;;;;;5053272;28;20502;-75
2022/06/08 08:11:26;;;;;;;7.25;4.68;;;;;;;;;;5054512;28;20040;-74
2022/06/08 08:13:53;;;;;;;7.07;4.38;;;;;;;;;;5054968;28;20028;-76
2022/06/08 08:16:19;;;;;;;7.18;4.38;;;;;;;;;;5055205;28;20025;-73
2022/06/08 08:18:45;;;;;;;9.18;4.75;;;;;;;;;;5055340;28;20451;-73
2022/06/08 08:21:11;;;;;;;6.53;4.30;;;;;;;;;;5055268;28;20029;-76
2022/06/08 08:23:38;;;;;;;7.88;4.85;;;;;;;;;;5055736;28;20025;-75
2022/06/08 08:26:04;;;;;;;6.72;4.45;;;;;;;;;;5055659;28;20070;-75
2022/06/08 08:28:30;;;;;;;7.65;4.25;;;;;;;;;;5054822;28;20174;-76
2022/06/08 08:30:56;;;;;;;8.52;4.72;;;;;;;;;;5049948;28;20040;-76
2022/06/08 08:33:22;;;;;;;7.90;4.32;;;;;;;;;;5050557;28;20044;-76
2022/06/08 08:35:50;;;;;;;7.78;3.92;;;;;;;;;;5055324;28;20436;-75
2022/06/08 08:38:16;;;;;;;6.40;4.10;;;;;;;;;;5055168;28;20021;-75
2022/06/08 08:40:45;;;;;;;6.00;4.22;;;;;;;;;;5055091;28;20028;-76
2022/06/08 08:43:20;;;;;;;9.40;4.10;;;;;;;;;;5054649;28;20024;-75
2022/06/08 08:46:06;;;;;;;7.53;3.92;;;;;;;;;;5054047;28;20040;-75
2022/06/08 08:48:47;;;;;;;6.75;4.00;;;;;;;;;;5047403;28;20110;-75
2022/06/08 08:51:23;;;;;;;9.18;3.78;;;;;;;;;;5054306;28;20029;-75
2022/06/08 08:53:59;;;;;;;8.02;3.70;;;;;;;;;;5053893;28;20031;-75
2022/06/08 08:56:43;;;;;;;8.70;3.50;;;;;;;;;;5053701;28;20084;-73
2022/06/08 08:59:19;;;;;;;10.55;3.85;;;;;;;;;;5051703;28;20056;-74
2022/06/08 09:01:47;;;;;;;6.35;3.95;;;;;;;;;;5050145;28;20494;-73
2022/06/08 09:04:33;;;;;;;8.32;4.05;;;;;;;;;;5052865;28;20522;-73
2022/06/08 09:07:19;;;;;;;9.27;4.00;;;;;;;;;;5053574;28;20036;-73
2022/06/08 09:09:45;;;;;;;11.10;3.80;;;;;;;;;;5053552;28;20495;-73
2022/06/08 09:12:15;;;;;;;9.10;4.45;;;;;;;;;;5053839;28;20372;-74
2022/06/08 09:14:55;;;;;;;8.30;3.85;;;;;;;;;;5053316;28;20021;-72
2022/06/08 09:17:32;;;;;;;9.90;3.80;;;;;;;;;;5053311;28;20031;-72
2022/06/08 09:19:59;;;;;;;6.93;3.80;;;;;;;;;;5053315;28;20139;-74
2022/06/08 09:22:27;;;;;;;6.35;3.58;;;;;;;;;;5052492;28;20021;-75
2022/06/08 09:24:55;;;;;;;8.55;3.80;;;;;;;;;;5054219;28;20028;-75
2022/06/08 09:27:30;;;;;;;8.25;4.35;;;;;;;;;;5053844;28;20029;-75
2022/06/08 09:30:02;;;;;;;11.48;3.97;;;;;;;;;;5052688;28;20116;-76
2022/06/08 09:32:32;;;;;;;8.30;3.63;;;;;;;;;;5053644;28;20096;-74
2022/06/08 09:35:00;;;;;;;5.63;3.35;;;;;;;;;;5053403;28;20027;-74
2022/06/08 09:37:27;;;;;;;6.30;3.17;;;;;;;;;;5053317;28;20032;-75
2022/06/08 09:39:54;;;;;;;10.95;4.00;;;;;;;;;;5053612;28;20467;-78
2022/06/08 09:42:40;;;;;;;7.68;3.75;;;;;;;;;;5053395;28;20025;-78
2022/06/08 09:45:25;;;;;;;6.50;3.17;;;;;;;;;;5050210;28;20049;-77
2022/06/08 09:53:48;;;;;;;5.45;2.75;;;;;;;;;;5052654;28;20082;-77
2022/06/08 09:56:19;;;;;;;5.88;2.92;;;;;;;;;;5052409;28;20029;-80
2022/06/08 09:58:45;;;;;;;4.47;3.05;;;;;;;;;;5052479;28;20498;-74
2022/06/08 10:01:19;;;;;;;9.98;2.85;;;;;;;;;;5052181;28;20033;-74
2022/06/08 10:04:00;;;;;;;9.68;3.05;;;;;;;;;;5052500;28;20740;-76
2022/06/08 10:06:29;;;;;;;8.68;2.90;;;;;;;;;;5034759;28;20033;-73
2022/06/08 10:09:02;;;;;;;5.78;2.72;;;;;;;;;;5032518;28;20036;-72
2022/06/08 10:11:41;;;;;;;6.05;2.78;;;;;;;;;;5032479;28;20028;-74
2022/06/08 10:14:20;;;;;;;5.57;2.45;;;;;;;;;;5032513;28;20025;-74
2022/06/08 10:17:06;;;;;;;7.13;2.45;;;;;;;;;;5032455;28;20647;-72
2022/06/08 10:19:39;;;;;;;7.05;2.33;;;;;;;;;;5032084;28;20124;-77
2022/06/08 10:22:06;;;;;;;6.43;2.03;;;;;;;;;;5032551;28;20018;-75
2022/06/08 10:24:36;;;;;;;5.85;1.92;;;;;;;;;;5032289;28;20033;-74
2022/06/08 10:27:11;;;;;;;6.40;2.10;;;;;;;;;;5037747;28;20147;-75
2022/06/08 10:29:42;;;;;;;6.05;1.50;;;;;;;;;;5056926;28;20021;-74
2022/06/08 10:32:20;;;;;;;5.05;1.83;;;;;;;;;;5052700;28;20050;-74
2022/06/08 10:34:52;;;;;;;5.32;1.52;;;;;;;;;;5050812;28;20030;-75
2022/06/08 10:37:18;;;;;;;;;;;;;;;;;;5053343;28;20094;-75
2022/06/08 10:39:46;;;;;;;6.25;2.10;;;;;;;;;;5053013;28;20011;-75
2022/06/08 10:44:59;;;;;;;6.88;1.58;;;;;;;;;;5052578;28;20071;-75
2022/06/08 10:47:27;;;;;;;6.63;1.73;;;;;;;;;;5052329;28;20021;-75
2022/06/08 10:50:03;;;;;;;7.45;1.67;;;;;;;;;;5052165;28;20443;-75
2022/06/08 10:52:40;;;;;;;7.97;1.33;;;;;;;;;;5052649;28;20070;-75
2022/06/08 10:55:18;;;;;;;4.38;1.27;;;;;;;;;;5051008;28;20025;-74
2022/06/08 10:57:50;;;;;;;6.47;1.02;;;;;;;;;;5052347;28;20028;-75
2022/06/08 11:00:19;;;;;;;2.80;0.90;;;;;;;;;;5052388;28;20033;-75
2022/06/08 11:03:03;;;;;;;6.70;1.20;;;;;;;;;;5052504;28;20029;-74
2022/06/08 11:05:40;;;;;;;6.70;1.48;;;;;;;;;;5042316;28;20117;-75
2022/06/08 11:08:15;;;;;;;5.47;1.05;;;;;;;;;;5031973;28;20451;-75
2022/06/08 11:10:45;;;;;;;6.90;0.93;;;;;;;;;;5032669;28;20026;-75
2022/06/08 11:13:14;;;;;;;5.78;1.33;;;;;;;;;;5032628;28;20025;-75
2022/06/08 11:15:42;;;;;;;7.60;1.15;;;;;;;;;;5032525;28;20030;-75
2022/06/08 11:18:24;;;;;;;8.10;1.30;;;;;;;;;;5032441;28;20108;-75
2022/06/08 11:20:57;;;;;;;5.18;1.02;;;;;;;;;;5032295;28;20090;-75
2022/06/08 11:23:49;;;;;;;4.57;0.95;;;;;;;;;;5032435;28;20021;-75
2022/06/08 11:26:23;;;;;;;2.75;1.00;;;;;;;;;;5030392;28;20048;-75
2022/06/08 11:29:10;;;;;;;7.38;1.30;;;;;;;;;;5032624;28;20033;-75
2022/06/08 11:31:36;;;;;;;6.15;1.13;;;;;;;;;;4971102;28;20339;-75
2022/06/08 11:34:14;;;;;;;3.22;1.00;;;;;;;;;;4971230;28;20043;-75
2022/06/08 11:36:58;;;;;;;3.83;1.00;;;;;;;;;;4971348;28;20038;-75
2022/06/08 11:39:36;;;;;;;5.57;1.45;;;;;;;;;;4971409;28;20397;-75
2022/06/08 11:42:15;;;;;;;7.93;2.45;;;;;;;;;;4971404;28;20133;-75
2022/06/08 11:45:04;;;;;;;8.77;1.52;;;;;;;;;;4971349;28;20105;-75
2022/06/08 11:47:37;;;;;;;6.43;1.20;;;;;;;;;;4971607;28;20034;-75
2022/06/08 11:50:05;;;;;;;6.50;1.70;;;;;;;;;;4971481;28;20031;-75
2022/06/08 11:52:36;;;;;;;10.90;1.70;;;;;;;;;;4971526;28;20053;-75
2022/06/08 11:55:08;;;;;;;9.05;1.85;;;;;;;;;;4971182;28;20556;-75
2022/06/08 11:57:35;;;;;;;6.22;1.70;;;;;;;;;;4971221;28;20425;-75
2022/06/08 12:00:03;;;;;;;8.70;2.15;;;;;;;;;;4971481;28;20027;-75
2022/06/08 12:02:37;;;;;;;8.60;2.30;;;;;;;;;;4971362;28;20035;-75
2022/06/08 12:05:04;;;;;;;7.97;2.08;;;;;;;;;;4971180;28;20041;-75
2022/06/08 12:07:50;;;;;;;7.20;2.08;;;;;;;;;;4972337;28;20038;-75
2022/06/08 12:10:18;;;;;;;8.57;2.22;;;;;;;;;;5032039;28;20029;-75
2022/06/08 12:12:45;;;;;;;8.18;2.65;;;;;;;;;;5032072;28;20021;-75
2022/06/08 12:15:30;;;;;;;5.10;2.03;;;;;;;;;;5032332;28;20100;-75
2022/06/08 12:17:56;;;;;;;6.60;2.25;;;;;;;;;;5031981;28;20029;-75
2022/06/08 12:20:37;;;;;;;9.63;2.75;;;;;;;;;;5034620;28;20026;-75
2022/06/08 12:23:03;;;;;;;11.68;2.53;;;;;;;;;;5035485;28;20021;-75
2022/06/08 12:25:29;;;;;;;8.57;2.70;;;;;;;;;;5035569;28;20064;-75
2022/06/08 12:28:15;;;;;;;5.38;2.30;;;;;;;;;;5048253;28;20122;-75
2022/06/08 12:30:44;;;;;;;12.93;2.70;;;;;;;;;;5055211;28;20056;-75
2022/06/08 12:33:13;;;;;;;13.07;2.85;;;;;;;;;;5055344;28;20017;-75
2022/06/08 12:35:40;;;;;;;5.95;2.60;;;;;;;;;;5054999;28;20029;-74
2022/06/08 12:38:22;;;;;;;6.25;2.67;;;;;;;;;;5055362;28;20043;-75
2022/06/08 12:41:08;;;;;;;10.40;2.88;;;;;;;;;;5055149;28;20013;-75
2022/06/08 12:43:39;;;;;;;10.60;3.08;;;;;;;;;;5055193;28;20041;-75
2022/06/08 12:46:28;;;;;;;9.35;2.97;;;;;;;;;;5054943;28;20033;-75
2022/06/08 12:49:00;;;;;;;9.77;3.20;;;;;;;;;;5055080;28;20460;-75
2022/06/08 12:51:35;;;;;;;10.38;3.10;;;;;;;;;;5054893;28;20128;-75
2022/06/08 12:54:03;;;;;;;10.20;3.38;;;;;;;;;;5054754;28;20653;-75
2022/06/08 12:56:30;;;;;;;5.93;2.40;;;;;;;;;;5054799;28;20032;-75
2022/06/08 12:58:57;;;;;;;9.93;2.40;;;;;;;;;;5054609;28;20067;-75
2022/06/08 13:01:25;;;;;;;4.32;2.00;;;;;;;;;;5054757;28;20071;-75
2022/06/08 13:03:52;;;;;;;5.15;2.03;;;;;;;;;;5054639;28;20078;-75
2022/06/08 13:06:18;;;;;;;7.97;2.70;;;;;;;;;;5054149;28;20341;-75
2022/06/08 13:08:45;;;;;;;6.15;2.40;;;;;;;;;;5053941;28;20178;-75
2022/06/08 13:11:16;;;;;;;6.38;2.97;;;;;;;;;;5052577;28;20025;-75
2022/06/08 13:13:43;;;;;;;6.55;2.33;;;;;;;;;;5052540;28;20403;-75
2022/06/08 13:16:15;;;;;;;6.97;2.58;;;;;;;;;;5054147;28;20082;-75
2022/06/08 13:18:41;;;;;;;6.05;2.20;;;;;;;;;;5053996;28;20021;-76
2022/06/08 13:21:07;;;;;;;8.15;2.70;;;;;;;;;;5053936;28;20032;-75
2022/06/08 13:23:34;;;;;;;5.45;2.15;;;;;;;;;;5052417;28;20021;-75
2022/06/08 13:26:01;;;;;;;7.70;3.17;;;;;;;;;;5053722;28;20033;-76
2022/06/08 13:28:29;;;;;;;6.40;2.50;;;;;;;;;;5053524;28;20359;-75
2022/06/08 13:30:55;;;;;;;4.93;2.60;;;;;;;;;;5044344;28;20022;-76
2022/06/08 13:36:16;;;;;;;4.78;2.53;;;;;;;;;;5033581;28;20146;-75
2022/06/08 13:38:42;;;;;;;3.70;2.10;;;;;;;;;;5033424;28;20064;-75
2022/06/08 13:41:08;;;;;;;10.23;2.58;;;;;;;;;;5033407;28;20037;-75
2022/06/08 13:43:34;;;;;;;5.88;2.10;;;;;;;;;;5033380;28;20049;-76
2022/06/08 13:46:00;;;;;;;6.20;2.17;;;;;;;;;;5033553;28;20100;-76
2022/06/08 13:48:26;;;;;;;5.80;1.90;;;;;;;;;;5033481;28;20026;-76
2022/06/08 13:50:53;;;;;;;5.13;1.73;;;;;;;;;;5033275;28;20036;-76
2022/06/08 13:53:21;;;;;;;3.95;1.75;;;;;;;;;;5033425;28;20021;-76
2022/06/08 13:55:50;;;;;;;4.95;1.80;;;;;;;;;;5033476;28;20045;-76
2022/06/08 13:58:17;;;;;;;4.10;1.70;;;;;;;;;;5033243;28;20026;-76
2022/06/08 14:00:46;;;;;;;4.50;2.00;;;;;;;;;;5033242;28;20469;-76
2022/06/08 14:03:14;;;;;;;5.03;1.70;;;;;;;;;;5031893;28;20112;-76
2022/06/08 14:13:59;;;;;;;3.10;1.90;;;;;;;;;;5053142;28;20117;-76
2022/06/08 14:16:25;;;;;;;4.40;2.13;;;;;;;;;;5053143;28;20079;-76
2022/06/08 14:18:52;;;;;;;7.03;2.45;;;;;;;;;;5051812;28;20024;-76
2022/06/08 14:21:18;;;;;;;4.07;2.25;;;;;;;;;;5052218;28;20025;-76
2022/06/08 14:23:46;;;;;;;5.35;2.38;;;;;;;;;;5052337;28;20116;-75
2022/06/08 14:26:17;;;;;;;12.43;2.65;;;;;;;;;;5052060;28;20059;-75
2022/06/08 14:28:46;;;;;;;8.35;2.30;;;;;;;;;;5051983;28;20447;-75
2022/06/08 14:31:16;;;;;;;5.10;2.40;;;;;;;;;;5051803;28;20029;-75
2022/06/08 14:33:42;;;;;;;5.97;2.60;;;;;;;;;;5052330;28;20028;-75
2022/06/08 14:36:08;;;;;;;4.97;2.45;;;;;;;;;;5052002;28;20036;-75
2022/06/08 14:38:36;;;;;;;8.05;2.78;;;;;;;;;;5051822;28;20036;-75
2022/06/08 14:41:03;;;;;;;4.93;2.78;;;;;;;;;;5051619;28;20017;-76
2022/06/08 14:43:29;;;;;;;4.63;2.60;;;;;;;;;;5051180;28;20047;-75
2022/06/08 14:45:56;;;;;;;4.35;2.25;;;;;;;;;;5051779;28;20170;-76
2022/06/08 14:48:27;;;;;;;4.18;2.40;;;;;;;;;;5051749;28;20364;-76
2022/06/08 14:50:54;;;;;;;6.07;3.00;;;;;;;;;;5052239;28;20044;-76
2022/06/08 14:53:22;;;;;;;5.82;2.20;;;;;;;;;;5052643;28;20083;-75
2022/06/08 14:58:37;;;;;;;6.55;2.35;;;;;;;;;;5053043;28;20040;-76
2022/06/08 15:01:04;;;;;;;8.85;4.35;;;;;;;;;;5052368;28;20071;-76
2022/06/08 15:03:30;;;;;;;8.15;2.95;;;;;;;;;;5052522;28;20858;-76
2022/06/08 15:06:00;;;;;;;4.72;2.70;;;;;;;;;;5052526;28;20467;-76
2022/06/08 15:08:26;;;;;;;8.27;2.90;;;;;;;;;;5052479;28;20029;-75
2022/06/08 15:13:40;;;;;;;5.20;2.75;;;;;;;;;;5053008;28;20124;-76
2022/06/08 15:16:06;;;;;;;5.15;2.78;;;;;;;;;;5052323;28;20103;-76